Terminal Aerodrome Forecast
Issued by NWS

Home | Current Version | Previous Version | Text Only | Print | Product List | Glossary On
Versions: 1 2 3 4 5 6 7 8 9 10 11 12 13 14 15 16 17 18 19
000
FTUS41 KPHI 222300 RRA
TAFMIV
TAF
KMIV 222346Z 2300/2324 34015G24KT 6SM -RA SCT015 OVC025
     FM230300 33016G25KT P6SM -SHRA BKN015 OVC025
     FM231400 32017G25KT P6SM BKN025 OVC035
     FM231900 32015G25KT P6SM SCT025 OVC050=

USA.gov is the U.S. government's official web portal to all federal, state and local government web resources and services.